sensor_id;sensor_type;location;lat;lon;timestamp;temperature;humidity
17152;DHT22;8691;50.828;4.700;2023-04-24T00:00:20;10.00;99.90
17152;DHT22;8691;50.828;4.700;2023-04-24T00:02:47;10.00;99.90
17152;DHT22;8691;50.828;4.700;2023-04-24T00:05:15;10.00;99.90
17152;DHT22;8691;50.828;4.700;2023-04-24T00:07:43;10.00;99.90
17152;DHT22;8691;50.828;4.700;2023-04-24T00:10:09;10.00;99.90
17152;DHT22;8691;50.828;4.700;2023-04-24T00:12:36;9.90;99.90
17152;DHT22;8691;50.828;4.700;2023-04-24T00:15:02;10.00;99.90
17152;DHT22;8691;50.828;4.700;2023-04-24T00:17:29;10.00;99.90
17152;DHT22;8691;50.828;4.700;2023-04-24T00:19:57;9.90;99.90
17152;DHT22;8691;50.828;4.700;2023-04-24T00:22:27;9.90;99.90
17152;DHT22;8691;50.828;4.700;2023-04-24T00:24:54;10.00;99.90
17152;DHT22;8691;50.828;4.700;2023-04-24T00:27:21;10.00;99.90
17152;DHT22;8691;50.828;4.700;2023-04-24T00:29:48;10.00;99.90
17152;DHT22;8691;50.828;4.700;2023-04-24T00:32:15;10.00;99.90
17152;DHT22;8691;50.828;4.700;2023-04-24T00:34:42;9.90;99.90
17152;DHT22;8691;50.828;4.700;2023-04-24T00:37:09;9.80;99.90
17152;DHT22;8691;50.828;4.700;2023-04-24T00:39:35;9.80;99.90
17152;DHT22;8691;50.828;4.700;2023-04-24T00:42:02;9.80;99.90
17152;DHT22;8691;50.828;4.700;2023-04-24T00:44:29;9.80;99.90
17152;DHT22;8691;50.828;4.700;2023-04-24T00:46:56;9.90;99.90
17152;DHT22;8691;50.828;4.700;2023-04-24T00:49:23;9.80;99.90
17152;DHT22;8691;50.828;4.700;2023-04-24T00:51:50;9.90;99.90
17152;DHT22;8691;50.828;4.700;2023-04-24T00:54:18;9.90;99.90
17152;DHT22;8691;50.828;4.700;2023-04-24T00:56:45;9.90;99.90
17152;DHT22;8691;50.828;4.700;2023-04-24T00:59:13;10.00;99.90
17152;DHT22;8691;50.828;4.700;2023-04-24T01:01:40;10.00;99.90
17152;DHT22;8691;50.828;4.700;2023-04-24T01:04:09;9.90;99.90
17152;DHT22;8691;50.828;4.700;2023-04-24T01:06:35;9.90;99.90
17152;DHT22;8691;50.828;4.700;2023-04-24T01:09:03;9.90;99.90
17152;DHT22;8691;50.828;4.700;2023-04-24T01:11:29;9.90;99.90
17152;DHT22;8691;50.828;4.700;2023-04-24T01:13:56;9.90;99.90
17152;DHT22;8691;50.828;4.700;2023-04-24T01:16:23;9.90;99.90
17152;DHT22;8691;50.828;4.700;2023-04-24T01:18:50;9.80;99.90
17152;DHT22;8691;50.828;4.700;2023-04-24T01:21:17;9.90;99.90
17152;DHT22;8691;50.828;4.700;2023-04-24T01:23:44;9.90;99.90
17152;DHT22;8691;50.828;4.700;2023-04-24T01:26:11;9.90;99.90
17152;DHT22;8691;50.828;4.700;2023-04-24T01:28:37;9.90;99.90
17152;DHT22;8691;50.828;4.700;2023-04-24T01:31:04;9.80;99.90
17152;DHT22;8691;50.828;4.700;2023-04-24T01:33:31;9.70;99.90
17152;DHT22;8691;50.828;4.700;2023-04-24T01:35:58;9.70;99.90
17152;DHT22;8691;50.828;4.700;2023-04-24T01:38:25;9.60;99.90
17152;DHT22;8691;50.828;4.700;2023-04-24T01:40:52;9.60;99.90
17152;DHT22;8691;50.828;4.700;2023-04-24T01:43:19;9.50;99.90
17152;DHT22;8691;50.828;4.700;2023-04-24T01:45:46;9.40;99.90
17152;DHT22;8691;50.828;4.700;2023-04-24T01:48:13;9.20;99.90
17152;DHT22;8691;50.828;4.700;2023-04-24T01:50:40;9.20;99.90
17152;DHT22;8691;50.828;4.700;2023-04-24T01:53:06;9.20;99.90
17152;DHT22;8691;50.828;4.700;2023-04-24T01:55:33;9.20;99.90
17152;DHT22;8691;50.828;4.700;2023-04-24T01:58:00;9.10;99.90
17152;DHT22;8691;50.828;4.700;2023-04-24T02:00:27;9.20;99.90
17152;DHT22;8691;50.828;4.700;2023-04-24T02:02:54;9.10;99.90
17152;DHT22;8691;50.828;4.700;2023-04-24T02:05:21;9.00;99.90
17152;DHT22;8691;50.828;4.700;2023-04-24T02:07:47;9.00;99.90
17152;DHT22;8691;50.828;4.700;2023-04-24T02:10:14;9.00;99.90
17152;DHT22;8691;50.828;4.700;2023-04-24T02:12:41;9.00;99.90
17152;DHT22;8691;50.828;4.700;2023-04-24T02:15:08;9.10;99.90
17152;DHT22;8691;50.828;4.700;2023-04-24T02:17:35;9.00;99.90
17152;DHT22;8691;50.828;4.700;2023-04-24T02:20:03;9.00;99.90
17152;DHT22;8691;50.828;4.700;2023-04-24T02:22:29;9.00;99.90
17152;DHT22;8691;50.828;4.700;2023-04-24T02:24:56;9.00;99.90
17152;DHT22;8691;50.828;4.700;2023-04-24T02:27:24;9.00;99.90
17152;DHT22;8691;50.828;4.700;2023-04-24T02:29:51;8.90;99.90
17152;DHT22;8691;50.828;4.700;2023-04-24T02:32:18;9.00;99.90
17152;DHT22;8691;50.828;4.700;2023-04-24T02:34:46;8.90;99.90
17152;DHT22;8691;50.828;4.700;2023-04-24T02:37:14;9.00;99.90
17152;DHT22;8691;50.828;4.700;2023-04-24T02:39:40;9.00;99.90
17152;DHT22;8691;50.828;4.700;2023-04-24T02:42:07;9.00;99.90
17152;DHT22;8691;50.828;4.700;2023-04-24T02:44:34;9.00;99.90
17152;DHT22;8691;50.828;4.700;2023-04-24T02:47:01;9.00;99.90
17152;DHT22;8691;50.828;4.700;2023-04-24T02:49:27;9.00;99.90
17152;DHT22;8691;50.828;4.700;2023-04-24T02:51:54;9.00;99.90
17152;DHT22;8691;50.828;4.700;2023-04-24T02:54:21;8.90;99.90
17152;DHT22;8691;50.828;4.700;2023-04-24T02:56:48;9.00;99.90
17152;DHT22;8691;50.828;4.700;2023-04-24T02:59:15;9.00;99.90
17152;DHT22;8691;50.828;4.700;2023-04-24T03:01:42;9.00;99.90
17152;DHT22;8691;50.828;4.700;2023-04-24T03:04:10;9.00;99.90
17152;DHT22;8691;50.828;4.700;2023-04-24T03:06:37;9.00;99.90
17152;DHT22;8691;50.828;4.700;2023-04-24T03:09:04;9.00;99.90
17152;DHT22;8691;50.828;4.700;2023-04-24T03:11:31;9.00;99.90
17152;DHT22;8691;50.828;4.700;2023-04-24T03:13:58;9.00;99.90
17152;DHT22;8691;50.828;4.700;2023-04-24T03:16:26;9.00;99.90
17152;DHT22;8691;50.828;4.700;2023-04-24T03:18:53;9.00;99.90
17152;DHT22;8691;50.828;4.700;2023-04-24T03:21:20;9.00;99.90
17152;DHT22;8691;50.828;4.700;2023-04-24T03:23:47;9.00;99.90
17152;DHT22;8691;50.828;4.700;2023-04-24T03:26:14;9.00;99.90
17152;DHT22;8691;50.828;4.700;2023-04-24T03:28:41;8.90;99.90
17152;DHT22;8691;50.828;4.700;2023-04-24T03:31:08;8.90;99.90
17152;DHT22;8691;50.828;4.700;2023-04-24T03:33:34;8.90;99.90
17152;DHT22;8691;50.828;4.700;2023-04-24T03:36:01;8.80;99.90
17152;DHT22;8691;50.828;4.700;2023-04-24T03:38:28;8.90;99.90
17152;DHT22;8691;50.828;4.700;2023-04-24T03:40:55;8.80;99.90
17152;DHT22;8691;50.828;4.700;2023-04-24T03:43:23;8.90;99.90
17152;DHT22;8691;50.828;4.700;2023-04-24T03:45:49;8.80;99.90
17152;DHT22;8691;50.828;4.700;2023-04-24T03:48:16;8.80;99.90
17152;DHT22;8691;50.828;4.700;2023-04-24T03:50:44;8.80;99.90
17152;DHT22;8691;50.828;4.700;2023-04-24T03:53:11;8.80;99.90
17152;DHT22;8691;50.828;4.700;2023-04-24T03:55:38;8.80;99.90
17152;DHT22;8691;50.828;4.700;2023-04-24T03:58:04;8.80;99.90
17152;DHT22;8691;50.828;4.700;2023-04-24T04:00:31;8.70;99.90
17152;DHT22;8691;50.828;4.700;2023-04-24T04:02:58;8.70;99.90
17152;DHT22;8691;50.828;4.700;2023-04-24T04:05:25;8.70;99.90
17152;DHT22;8691;50.828;4.700;2023-04-24T04:07:52;8.70;99.90
17152;DHT22;8691;50.828;4.700;2023-04-24T04:10:18;8.70;99.90
17152;DHT22;8691;50.828;4.700;2023-04-24T04:12:45;8.60;99.90
17152;DHT22;8691;50.828;4.700;2023-04-24T04:15:13;8.70;99.90
17152;DHT22;8691;50.828;4.700;2023-04-24T04:17:40;8.70;99.90
17152;DHT22;8691;50.828;4.700;2023-04-24T04:20:07;8.70;99.90
17152;DHT22;8691;50.828;4.700;2023-04-24T04:22:34;8.70;99.90
17152;DHT22;8691;50.828;4.700;2023-04-24T04:25:01;8.70;99.90
17152;DHT22;8691;50.828;4.700;2023-04-24T04:27:28;8.70;99.90
17152;DHT22;8691;50.828;4.700;2023-04-24T04:29:54;8.70;99.90
17152;DHT22;8691;50.828;4.700;2023-04-24T04:32:22;8.80;99.90
17152;DHT22;8691;50.828;4.700;2023-04-24T04:34:49;8.70;99.90
17152;DHT22;8691;50.828;4.700;2023-04-24T04:37:16;8.80;99.90
17152;DHT22;8691;50.828;4.700;2023-04-24T04:39:43;8.80;99.90
17152;DHT22;8691;50.828;4.700;2023-04-24T04:42:10;8.80;99.90
17152;DHT22;8691;50.828;4.700;2023-04-24T04:44:37;8.90;99.90
17152;DHT22;8691;50.828;4.700;2023-04-24T04:47:04;8.90;99.90
17152;DHT22;8691;50.828;4.700;2023-04-24T04:49:34;8.90;99.90
17152;DHT22;8691;50.828;4.700;2023-04-24T04:52:01;8.90;99.90
17152;DHT22;8691;50.828;4.700;2023-04-24T04:54:28;9.00;99.90
17152;DHT22;8691;50.828;4.700;2023-04-24T04:56:55;9.00;99.90
17152;DHT22;8691;50.828;4.700;2023-04-24T04:59:22;9.00;99.90
17152;DHT22;8691;50.828;4.700;2023-04-24T05:01:49;9.00;99.90
17152;DHT22;8691;50.828;4.700;2023-04-24T05:04:16;9.00;99.90
17152;DHT22;8691;50.828;4.700;2023-04-24T05:06:42;9.00;99.90
17152;DHT22;8691;50.828;4.700;2023-04-24T05:09:09;9.00;99.90
17152;DHT22;8691;50.828;4.700;2023-04-24T05:11:36;9.00;99.90
17152;DHT22;8691;50.828;4.700;2023-04-24T05:14:03;9.00;99.90
17152;DHT22;8691;50.828;4.700;2023-04-24T05:16:30;9.30;99.90
17152;DHT22;8691;50.828;4.700;2023-04-24T05:18:57;9.10;99.90
17152;DHT22;8691;50.828;4.700;2023-04-24T05:21:24;9.10;99.90
17152;DHT22;8691;50.828;4.700;2023-04-24T05:23:51;9.00;99.90
17152;DHT22;8691;50.828;4.700;2023-04-24T05:26:18;9.10;99.90
17152;DHT22;8691;50.828;4.700;2023-04-24T05:28:46;9.20;99.90
17152;DHT22;8691;50.828;4.700;2023-04-24T05:31:13;9.20;99.90
17152;DHT22;8691;50.828;4.700;2023-04-24T05:33:40;9.20;99.90
17152;DHT22;8691;50.828;4.700;2023-04-24T05:36:06;9.10;99.90
17152;DHT22;8691;50.828;4.700;2023-04-24T05:38:34;9.10;99.90
17152;DHT22;8691;50.828;4.700;2023-04-24T05:41:00;9.00;99.90
17152;DHT22;8691;50.828;4.700;2023-04-24T05:43:27;9.00;99.90
17152;DHT22;8691;50.828;4.700;2023-04-24T05:45:54;9.00;99.90
17152;DHT22;8691;50.828;4.700;2023-04-24T05:48:22;9.00;99.90
17152;DHT22;8691;50.828;4.700;2023-04-24T05:50:49;9.00;99.90
17152;DHT22;8691;50.828;4.700;2023-04-24T05:53:16;9.00;99.90
17152;DHT22;8691;50.828;4.700;2023-04-24T05:55:43;9.00;99.90
17152;DHT22;8691;50.828;4.700;2023-04-24T05:58:10;9.00;99.90
17152;DHT22;8691;50.828;4.700;2023-04-24T06:00:37;9.00;99.90
17152;DHT22;8691;50.828;4.700;2023-04-24T06:03:04;9.00;99.90
17152;DHT22;8691;50.828;4.700;2023-04-24T06:05:31;9.00;99.90
17152;DHT22;8691;50.828;4.700;2023-04-24T06:07:58;9.00;99.90
17152;DHT22;8691;50.828;4.700;2023-04-24T06:10:25;8.90;99.90
17152;DHT22;8691;50.828;4.700;2023-04-24T06:12:52;9.00;99.90
17152;DHT22;8691;50.828;4.700;2023-04-24T06:15:18;8.90;99.90
17152;DHT22;8691;50.828;4.700;2023-04-24T06:17:45;8.90;99.90
17152;DHT22;8691;50.828;4.700;2023-04-24T06:20:12;8.90;99.90
17152;DHT22;8691;50.828;4.700;2023-04-24T06:22:39;8.90;99.90
17152;DHT22;8691;50.828;4.700;2023-04-24T06:25:06;8.90;99.90
17152;DHT22;8691;50.828;4.700;2023-04-24T06:27:33;8.90;99.90
17152;DHT22;8691;50.828;4.700;2023-04-24T06:29:59;8.90;99.90
17152;DHT22;8691;50.828;4.700;2023-04-24T06:32:26;8.90;99.90
17152;DHT22;8691;50.828;4.700;2023-04-24T06:34:53;8.90;99.90
17152;DHT22;8691;50.828;4.700;2023-04-24T06:37:20;8.80;99.90
17152;DHT22;8691;50.828;4.700;2023-04-24T06:39:47;8.80;99.90
17152;DHT22;8691;50.828;4.700;2023-04-24T06:42:14;8.80;99.90
17152;DHT22;8691;50.828;4.700;2023-04-24T06:44:41;8.90;99.90
17152;DHT22;8691;50.828;4.700;2023-04-24T06:47:08;8.90;99.90
17152;DHT22;8691;50.828;4.700;2023-04-24T06:49:37;9.00;99.90
17152;DHT22;8691;50.828;4.700;2023-04-24T06:52:04;9.00;99.90
17152;DHT22;8691;50.828;4.700;2023-04-24T06:54:31;9.00;99.90
17152;DHT22;8691;50.828;4.700;2023-04-24T06:56:58;9.10;99.90
17152;DHT22;8691;50.828;4.700;2023-04-24T06:59:25;9.20;99.90
17152;DHT22;8691;50.828;4.700;2023-04-24T07:01:52;9.20;99.90
17152;DHT22;8691;50.828;4.700;2023-04-24T07:04:19;9.20;99.90
17152;DHT22;8691;50.828;4.700;2023-04-24T07:06:46;9.20;99.90
17152;DHT22;8691;50.828;4.700;2023-04-24T07:09:13;9.30;99.90
17152;DHT22;8691;50.828;4.700;2023-04-24T07:11:45;9.20;99.90
17152;DHT22;8691;50.828;4.700;2023-04-24T07:14:13;9.30;99.90
17152;DHT22;8691;50.828;4.700;2023-04-24T07:16:41;9.40;99.90
17152;DHT22;8691;50.828;4.700;2023-04-24T07:19:08;9.50;99.90
17152;DHT22;8691;50.828;4.700;2023-04-24T07:21:35;9.50;99.90
17152;DHT22;8691;50.828;4.700;2023-04-24T07:24:02;9.60;99.90
17152;DHT22;8691;50.828;4.700;2023-04-24T07:26:29;9.70;99.90
17152;DHT22;8691;50.828;4.700;2023-04-24T07:28:55;9.70;99.90
17152;DHT22;8691;50.828;4.700;2023-04-24T07:31:22;9.90;99.90
17152;DHT22;8691;50.828;4.700;2023-04-24T07:33:49;9.90;99.90
17152;DHT22;8691;50.828;4.700;2023-04-24T07:36:16;10.00;99.90
17152;DHT22;8691;50.828;4.700;2023-04-24T07:38:43;9.90;99.90
17152;DHT22;8691;50.828;4.700;2023-04-24T07:41:10;9.80;99.90
17152;DHT22;8691;50.828;4.700;2023-04-24T07:43:37;9.60;99.90
17152;DHT22;8691;50.828;4.700;2023-04-24T07:46:04;9.50;99.90
17152;DHT22;8691;50.828;4.700;2023-04-24T07:48:31;9.60;99.90
17152;DHT22;8691;50.828;4.700;2023-04-24T07:50:58;9.50;99.90
17152;DHT22;8691;50.828;4.700;2023-04-24T07:53:24;9.40;99.90
17152;DHT22;8691;50.828;4.700;2023-04-24T07:55:51;9.30;99.90
17152;DHT22;8691;50.828;4.700;2023-04-24T07:58:18;9.30;99.90
17152;DHT22;8691;50.828;4.700;2023-04-24T08:00:45;9.40;99.90
17152;DHT22;8691;50.828;4.700;2023-04-24T08:03:12;9.40;99.90
17152;DHT22;8691;50.828;4.700;2023-04-24T08:05:39;9.60;99.90
17152;DHT22;8691;50.828;4.700;2023-04-24T08:08:06;9.90;99.90
17152;DHT22;8691;50.828;4.700;2023-04-24T08:10:33;10.20;99.90
17152;DHT22;8691;50.828;4.700;2023-04-24T08:12:59;10.60;99.90
17152;DHT22;8691;50.828;4.700;2023-04-24T08:15:27;12.10;99.90
17152;DHT22;8691;50.828;4.700;2023-04-24T08:17:53;14.30;99.90
17152;DHT22;8691;50.828;4.700;2023-04-24T08:20:20;16.10;99.90
17152;DHT22;8691;50.828;4.700;2023-04-24T08:22:47;16.40;99.90
17152;DHT22;8691;50.828;4.700;2023-04-24T08:25:14;16.10;99.90
17152;DHT22;8691;50.828;4.700;2023-04-24T08:27:40;15.70;99.90
17152;DHT22;8691;50.828;4.700;2023-04-24T08:30:07;15.60;99.90
17152;DHT22;8691;50.828;4.700;2023-04-24T08:32:35;16.80;99.90
17152;DHT22;8691;50.828;4.700;2023-04-24T08:35:01;16.90;99.90
17152;DHT22;8691;50.828;4.700;2023-04-24T08:37:29;14.80;99.90
17152;DHT22;8691;50.828;4.700;2023-04-24T08:39:57;14.10;99.90
17152;DHT22;8691;50.828;4.700;2023-04-24T08:42:24;14.10;99.90
17152;DHT22;8691;50.828;4.700;2023-04-24T08:44:51;13.60;99.90
17152;DHT22;8691;50.828;4.700;2023-04-24T08:47:18;13.40;99.90
17152;DHT22;8691;50.828;4.700;2023-04-24T08:49:45;13.40;99.90
17152;DHT22;8691;50.828;4.700;2023-04-24T08:52:12;13.60;99.90
17152;DHT22;8691;50.828;4.700;2023-04-24T08:54:38;14.30;99.90
17152;DHT22;8691;50.828;4.700;2023-04-24T08:57:05;14.80;99.90
17152;DHT22;8691;50.828;4.700;2023-04-24T08:59:32;15.50;99.90
17152;DHT22;8691;50.828;4.700;2023-04-24T09:01:59;17.00;99.90
17152;DHT22;8691;50.828;4.700;2023-04-24T09:04:26;16.50;99.90
17152;DHT22;8691;50.828;4.700;2023-04-24T09:06:57;16.40;99.90
17152;DHT22;8691;50.828;4.700;2023-04-24T09:09:23;15.60;99.90
17152;DHT22;8691;50.828;4.700;2023-04-24T09:11:50;14.70;99.90
17152;DHT22;8691;50.828;4.700;2023-04-24T09:14:17;14.10;99.90
17152;DHT22;8691;50.828;4.700;2023-04-24T09:16:44;13.70;99.90
17152;DHT22;8691;50.828;4.700;2023-04-24T09:19:11;13.70;99.90
17152;DHT22;8691;50.828;4.700;2023-04-24T09:21:38;14.60;99.90
17152;DHT22;8691;50.828;4.700;2023-04-24T09:24:08;15.90;99.90
17152;DHT22;8691;50.828;4.700;2023-04-24T09:26:37;16.10;99.90
17152;DHT22;8691;50.828;4.700;2023-04-24T09:29:04;16.70;99.90
17152;DHT22;8691;50.828;4.700;2023-04-24T09:31:30;17.60;99.90
17152;DHT22;8691;50.828;4.700;2023-04-24T09:34:01;17.50;99.90
17152;DHT22;8691;50.828;4.700;2023-04-24T09:36:27;16.60;99.90
17152;DHT22;8691;50.828;4.700;2023-04-24T09:38:55;16.80;99.90
17152;DHT22;8691;50.828;4.700;2023-04-24T09:41:20;18.00;99.90
17152;DHT22;8691;50.828;4.700;2023-04-24T09:43:47;18.30;99.90
17152;DHT22;8691;50.828;4.700;2023-04-24T09:46:15;16.90;99.90
17152;DHT22;8691;50.828;4.700;2023-04-24T09:48:42;16.90;99.90
17152;DHT22;8691;50.828;4.700;2023-04-24T09:51:09;16.00;99.90
17152;DHT22;8691;50.828;4.700;2023-04-24T09:53:38;15.40;99.90
17152;DHT22;8691;50.828;4.700;2023-04-24T09:56:08;15.20;99.90
17152;DHT22;8691;50.828;4.700;2023-04-24T09:58:35;15.10;99.90
17152;DHT22;8691;50.828;4.700;2023-04-24T10:01:02;14.70;99.90
17152;DHT22;8691;50.828;4.700;2023-04-24T10:03:32;14.30;99.90
17152;DHT22;8691;50.828;4.700;2023-04-24T10:05:59;13.90;99.90
17152;DHT22;8691;50.828;4.700;2023-04-24T10:08:26;13.90;99.90
17152;DHT22;8691;50.828;4.700;2023-04-24T10:10:52;14.00;99.90
17152;DHT22;8691;50.828;4.700;2023-04-24T10:13:20;14.00;99.90
17152;DHT22;8691;50.828;4.700;2023-04-24T10:15:47;14.00;99.90
17152;DHT22;8691;50.828;4.700;2023-04-24T10:18:14;14.40;99.90
17152;DHT22;8691;50.828;4.700;2023-04-24T10:20:41;14.90;99.90
17152;DHT22;8691;50.828;4.700;2023-04-24T10:23:09;15.20;99.90
17152;DHT22;8691;50.828;4.700;2023-04-24T10:25:36;15.10;99.90
17152;DHT22;8691;50.828;4.700;2023-04-24T10:28:03;15.10;99.90
17152;DHT22;8691;50.828;4.700;2023-04-24T10:30:33;15.20;99.90
17152;DHT22;8691;50.828;4.700;2023-04-24T10:33:03;15.20;99.90
17152;DHT22;8691;50.828;4.700;2023-04-24T10:35:32;15.50;99.90
17152;DHT22;8691;50.828;4.700;2023-04-24T10:38:08;15.60;99.90
17152;DHT22;8691;50.828;4.700;2023-04-24T10:40:35;15.40;99.90
17152;DHT22;8691;50.828;4.700;2023-04-24T10:43:04;15.50;99.90
17152;DHT22;8691;50.828;4.700;2023-04-24T10:45:31;15.80;99.50
17152;DHT22;8691;50.828;4.700;2023-04-24T10:48:04;15.80;98.60
17152;DHT22;8691;50.828;4.700;2023-04-24T10:51:03;15.60;99.10
17152;DHT22;8691;50.828;4.700;2023-04-24T10:53:07;14.50;99.90
17152;DHT22;8691;50.828;4.700;2023-04-24T10:55:44;14.50;99.90
17152;DHT22;8691;50.828;4.700;2023-04-24T10:58:09;14.20;99.90
17152;DHT22;8691;50.828;4.700;2023-04-24T11:00:39;14.50;99.90
17152;DHT22;8691;50.828;4.700;2023-04-24T11:03:22;15.50;99.90
17152;DHT22;8691;50.828;4.700;2023-04-24T11:05:53;15.50;99.90
17152;DHT22;8691;50.828;4.700;2023-04-24T11:08:23;15.70;99.90
17152;DHT22;8691;50.828;4.700;2023-04-24T11:11:07;15.70;99.90
17152;DHT22;8691;50.828;4.700;2023-04-24T11:14:00;16.00;99.00
17152;DHT22;8691;50.828;4.700;2023-04-24T11:19:02;16.40;98.50
17152;DHT22;8691;50.828;4.700;2023-04-24T11:21:44;16.10;97.40
17152;DHT22;8691;50.828;4.700;2023-04-24T11:26:56;15.60;99.30
17152;DHT22;8691;50.828;4.700;2023-04-24T11:29:22;15.40;98.60
17152;DHT22;8691;50.828;4.700;2023-04-24T11:31:49;15.40;99.30
17152;DHT22;8691;50.828;4.700;2023-04-24T11:34:15;15.40;99.90
17152;DHT22;8691;50.828;4.700;2023-04-24T11:36:46;15.40;99.80
17152;DHT22;8691;50.828;4.700;2023-04-24T11:39:10;15.50;99.90
17152;DHT22;8691;50.828;4.700;2023-04-24T11:41:37;15.50;99.90
17152;DHT22;8691;50.828;4.700;2023-04-24T11:44:05;15.50;99.90
17152;DHT22;8691;50.828;4.700;2023-04-24T11:46:31;15.70;99.20
17152;DHT22;8691;50.828;4.700;2023-04-24T11:48:58;15.50;98.90
17152;DHT22;8691;50.828;4.700;2023-04-24T11:51:25;15.40;99.00
17152;DHT22;8691;50.828;4.700;2023-04-24T11:53:55;15.20;99.50
17152;DHT22;8691;50.828;4.700;2023-04-24T11:56:21;15.40;99.90
17152;DHT22;8691;50.828;4.700;2023-04-24T11:58:48;15.60;99.90
17152;DHT22;8691;50.828;4.700;2023-04-24T12:01:15;15.90;99.90
17152;DHT22;8691;50.828;4.700;2023-04-24T12:03:42;16.30;98.50
17152;DHT22;8691;50.828;4.700;2023-04-24T12:06:09;16.50;98.30
17152;DHT22;8691;50.828;4.700;2023-04-24T12:08:36;16.50;97.60
17152;DHT22;8691;50.828;4.700;2023-04-24T12:11:04;16.00;98.20
17152;DHT22;8691;50.828;4.700;2023-04-24T12:13:29;16.00;98.40
17152;DHT22;8691;50.828;4.700;2023-04-24T12:15:58;16.40;98.20
17152;DHT22;8691;50.828;4.700;2023-04-24T12:18:25;16.50;96.60
17152;DHT22;8691;50.828;4.700;2023-04-24T12:20:53;16.50;96.90
17152;DHT22;8691;50.828;4.700;2023-04-24T12:23:35;16.50;96.90
17152;DHT22;8691;50.828;4.700;2023-04-24T12:26:04;16.60;97.30
17152;DHT22;8691;50.828;4.700;2023-04-24T12:28:37;16.70;96.70
17152;DHT22;8691;50.828;4.700;2023-04-24T12:31:04;16.90;97.20
17152;DHT22;8691;50.828;4.700;2023-04-24T12:33:34;16.80;97.10
17152;DHT22;8691;50.828;4.700;2023-04-24T12:36:01;16.90;95.90
17152;DHT22;8691;50.828;4.700;2023-04-24T12:38:29;16.40;96.50
17152;DHT22;8691;50.828;4.700;2023-04-24T12:41:04;16.30;96.40
17152;DHT22;8691;50.828;4.700;2023-04-24T12:43:31;16.20;97.70
17152;DHT22;8691;50.828;4.700;2023-04-24T12:45:57;16.70;98.20
17152;DHT22;8691;50.828;4.700;2023-04-24T12:48:27;17.10;97.50
17152;DHT22;8691;50.828;4.700;2023-04-24T12:50:53;17.60;96.00
17152;DHT22;8691;50.828;4.700;2023-04-24T12:53:20;17.80;96.20
17152;DHT22;8691;50.828;4.700;2023-04-24T12:55:47;17.70;94.70
17152;DHT22;8691;50.828;4.700;2023-04-24T12:58:14;17.60;94.10
17152;DHT22;8691;50.828;4.700;2023-04-24T13:00:40;17.00;94.00
17152;DHT22;8691;50.828;4.700;2023-04-24T13:03:07;16.50;94.50
17152;DHT22;8691;50.828;4.700;2023-04-24T13:05:35;16.60;96.20
17152;DHT22;8691;50.828;4.700;2023-04-24T13:08:02;16.60;96.20
17152;DHT22;8691;50.828;4.700;2023-04-24T13:10:29;16.90;95.10
17152;DHT22;8691;50.828;4.700;2023-04-24T13:12:56;17.00;94.80
17152;DHT22;8691;50.828;4.700;2023-04-24T13:15:22;17.00;95.00
17152;DHT22;8691;50.828;4.700;2023-04-24T13:17:50;17.00;95.10
17152;DHT22;8691;50.828;4.700;2023-04-24T13:20:16;16.30;96.00
17152;DHT22;8691;50.828;4.700;2023-04-24T13:22:43;16.20;95.20
17152;DHT22;8691;50.828;4.700;2023-04-24T13:25:10;16.00;97.60
17152;DHT22;8691;50.828;4.700;2023-04-24T13:27:40;16.10;97.00
17152;DHT22;8691;50.828;4.700;2023-04-24T13:30:07;16.30;96.40
17152;DHT22;8691;50.828;4.700;2023-04-24T13:32:35;16.30;95.30
17152;DHT22;8691;50.828;4.700;2023-04-24T13:35:01;15.90;96.10
17152;DHT22;8691;50.828;4.700;2023-04-24T13:37:28;15.70;96.00
17152;DHT22;8691;50.828;4.700;2023-04-24T13:39:55;15.90;96.30
17152;DHT22;8691;50.828;4.700;2023-04-24T13:42:22;16.20;95.70
17152;DHT22;8691;50.828;4.700;2023-04-24T13:44:49;16.00;96.00
17152;DHT22;8691;50.828;4.700;2023-04-24T13:47:16;16.00;96.00
17152;DHT22;8691;50.828;4.700;2023-04-24T13:49:43;15.90;96.10
17152;DHT22;8691;50.828;4.700;2023-04-24T13:52:10;15.80;96.30
17152;DHT22;8691;50.828;4.700;2023-04-24T13:54:37;15.80;96.20
17152;DHT22;8691;50.828;4.700;2023-04-24T13:57:03;15.90;95.50
17152;DHT22;8691;50.828;4.700;2023-04-24T13:59:30;15.80;96.60
17152;DHT22;8691;50.828;4.700;2023-04-24T14:01:57;15.60;96.50
17152;DHT22;8691;50.828;4.700;2023-04-24T14:04:24;15.60;96.30
17152;DHT22;8691;50.828;4.700;2023-04-24T14:06:51;15.50;97.70
17152;DHT22;8691;50.828;4.700;2023-04-24T14:09:18;15.60;98.40
17152;DHT22;8691;50.828;4.700;2023-04-24T14:11:44;15.70;97.00
17152;DHT22;8691;50.828;4.700;2023-04-24T14:14:11;15.70;98.10
17152;DHT22;8691;50.828;4.700;2023-04-24T14:16:38;16.00;96.50
17152;DHT22;8691;50.828;4.700;2023-04-24T14:19:05;16.30;96.60
17152;DHT22;8691;50.828;4.700;2023-04-24T14:21:33;16.40;96.20
17152;DHT22;8691;50.828;4.700;2023-04-24T14:24:00;16.40;96.20
17152;DHT22;8691;50.828;4.700;2023-04-24T14:26:27;16.50;95.40
17152;DHT22;8691;50.828;4.700;2023-04-24T14:28:54;16.20;96.40
17152;DHT22;8691;50.828;4.700;2023-04-24T14:31:21;16.20;96.40
17152;DHT22;8691;50.828;4.700;2023-04-24T14:33:49;16.10;96.10
17152;DHT22;8691;50.828;4.700;2023-04-24T14:36:16;16.10;96.10
17152;DHT22;8691;50.828;4.700;2023-04-24T14:38:43;16.10;96.80
17152;DHT22;8691;50.828;4.700;2023-04-24T14:41:10;16.10;96.80
17152;DHT22;8691;50.828;4.700;2023-04-24T14:43:36;16.00;96.20
17152;DHT22;8691;50.828;4.700;2023-04-24T14:46:03;15.80;97.30
17152;DHT22;8691;50.828;4.700;2023-04-24T14:48:30;15.70;96.00
17152;DHT22;8691;50.828;4.700;2023-04-24T14:50:58;15.20;96.90
17152;DHT22;8691;50.828;4.700;2023-04-24T14:53:25;14.70;98.20
17152;DHT22;8691;50.828;4.700;2023-04-24T14:55:52;14.70;98.20
17152;DHT22;8691;50.828;4.700;2023-04-24T14:58:19;14.70;97.40
17152;DHT22;8691;50.828;4.700;2023-04-24T15:00:46;14.60;98.10
17152;DHT22;8691;50.828;4.700;2023-04-24T15:03:13;14.40;98.60
17152;DHT22;8691;50.828;4.700;2023-04-24T15:05:40;14.30;99.10
17152;DHT22;8691;50.828;4.700;2023-04-24T15:08:07;14.40;98.90
17152;DHT22;8691;50.828;4.700;2023-04-24T15:10:34;14.40;98.80
17152;DHT22;8691;50.828;4.700;2023-04-24T15:13:01;14.20;99.10
17152;DHT22;8691;50.828;4.700;2023-04-24T15:15:28;14.20;98.80
17152;DHT22;8691;50.828;4.700;2023-04-24T15:17:55;14.20;98.90
17152;DHT22;8691;50.828;4.700;2023-04-24T15:20:22;14.20;99.00
17152;DHT22;8691;50.828;4.700;2023-04-24T15:22:48;14.10;99.20
17152;DHT22;8691;50.828;4.700;2023-04-24T15:25:15;14.10;98.40
17152;DHT22;8691;50.828;4.700;2023-04-24T15:27:45;14.00;98.70
17152;DHT22;8691;50.828;4.700;2023-04-24T15:30:12;14.20;98.60
17152;DHT22;8691;50.828;4.700;2023-04-24T15:32:39;14.40;99.10
17152;DHT22;8691;50.828;4.700;2023-04-24T15:35:06;14.60;97.70
17152;DHT22;8691;50.828;4.700;2023-04-24T15:37:33;14.60;98.00
17152;DHT22;8691;50.828;4.700;2023-04-24T15:40:00;14.50;98.00
17152;DHT22;8691;50.828;4.700;2023-04-24T15:42:27;14.50;98.30
17152;DHT22;8691;50.828;4.700;2023-04-24T15:44:54;14.50;97.90
17152;DHT22;8691;50.828;4.700;2023-04-24T15:47:21;14.60;97.70
17152;DHT22;8691;50.828;4.700;2023-04-24T15:49:48;14.40;98.70
17152;DHT22;8691;50.828;4.700;2023-04-24T15:52:15;14.50;97.90
17152;DHT22;8691;50.828;4.700;2023-04-24T15:54:42;14.30;98.60
17152;DHT22;8691;50.828;4.700;2023-04-24T15:57:09;14.20;98.40